createdAt,value
2022-10-02T00:01:22.383Z,99374.56
2022-10-02T00:03:51.451Z,99370.34
2022-10-02T00:06:25.242Z,99372.03
2022-10-02T00:09:01.184Z,99374.63
2022-10-02T00:11:38.735Z,99382.31
2022-10-02T00:14:13.600Z,99385.72
2022-10-02T00:16:45.491Z,99391.69
2022-10-02T00:19:18.126Z,99395.13
2022-10-02T00:22:00.971Z,99389.13
2022-10-02T00:24:38.538Z,99395.13
2022-10-02T00:27:19.443Z,99396.00
2022-10-02T00:29:52.691Z,99409.63
2022-10-02T00:32:30.703Z,99401.09
2022-10-02T00:35:33.721Z,99401.13
2022-10-02T00:38:12.672Z,99403.59
2022-10-02T00:41:06.084Z,99394.25
2022-10-02T00:43:44.895Z,99392.69
2022-10-02T00:46:30.196Z,99396.00
2022-10-02T00:49:23.551Z,99382.53
2022-10-02T00:52:03.171Z,99404.59
2022-10-02T00:54:48.662Z,99401.13
2022-10-02T00:57:35.089Z,99396.81
2022-10-02T01:00:10.071Z,99394.22
2022-10-02T01:03:01.900Z,99395.97
2022-10-02T01:05:30.712Z,99397.69
2022-10-02T01:07:59.401Z,99408.84
2022-10-02T01:10:30.112Z,99408.00
2022-10-02T01:13:00.194Z,99418.25
2022-10-02T01:15:35.260Z,99415.69
2022-10-02T01:18:04.653Z,99409.66
2022-10-02T01:20:39.860Z,99415.72
2022-10-02T01:23:17.943Z,99417.38
2022-10-02T01:25:48.473Z,99415.59
2022-10-02T01:28:17.338Z,99409.81
2022-10-02T01:30:50.560Z,99423.28
2022-10-02T01:33:20.234Z,99432.63
2022-10-02T01:35:49.284Z,99429.97
2022-10-02T01:38:22.893Z,99436.81
2022-10-02T01:40:53.130Z,99432.53
2022-10-02T01:43:25.243Z,99430.81
2022-10-02T01:46:02.965Z,99441.06
2022-10-02T01:48:45.552Z,99447.03
2022-10-02T01:51:33.682Z,99445.31
2022-10-02T01:54:16.461Z,99453.84
2022-10-02T01:56:57.021Z,99458.16
2022-10-02T01:59:40.541Z,99442.03
2022-10-02T02:02:16.860Z,99460.78
2022-10-02T02:04:54.695Z,99455.66
2022-10-02T02:07:45.611Z,99460.78
2022-10-02T02:10:21.794Z,99455.66
2022-10-02T02:12:59.672Z,99463.31
2022-10-02T02:15:36.192Z,99462.47
2022-10-02T02:18:13.310Z,99468.50
2022-10-02T02:20:48.212Z,99464.25
2022-10-02T02:23:21.554Z,99476.19
2022-10-02T02:25:55.630Z,99478.75
2022-10-02T02:28:29.402Z,99473.69
2022-10-02T02:31:01.194Z,99488.13
2022-10-02T02:33:36.224Z,99486.44
2022-10-02T02:36:11.571Z,99495.00
2022-10-02T02:38:47.412Z,99485.72
2022-10-02T02:41:21.893Z,99505.34
2022-10-02T02:43:56.744Z,99504.59
2022-10-02T02:46:30.143Z,99510.59
2022-10-02T02:49:05.194Z,99511.44
2022-10-02T02:51:39.464Z,99511.41
2022-10-02T02:54:14.090Z,99507.16
2022-10-02T02:56:45.614Z,99519.16
2022-10-02T02:59:16.953Z,99518.28
2022-10-02T03:01:45.934Z,99516.59
2022-10-02T03:04:16.060Z,99511.50
2022-10-02T03:06:47.401Z,99524.28
2022-10-02T03:09:20.621Z,99518.34
2022-10-02T03:11:59.954Z,99527.72
2022-10-02T03:15:07.705Z,99528.53
2022-10-02T03:17:52.675Z,99526.00
2022-10-02T03:20:31.263Z,99532.88
2022-10-02T03:23:09.835Z,99539.72
2022-10-02T03:25:44.474Z,99539.75
2022-10-02T03:28:37.387Z,99546.56
2022-10-02T03:31:12.437Z,99558.56
2022-10-02T03:33:42.651Z,99567.09
2022-10-02T03:36:12.806Z,99564.63
2022-10-02T03:38:43.794Z,99562.06
2022-10-02T03:41:12.724Z,99574.81
2022-10-02T03:43:41.484Z,99577.41
2022-10-02T03:46:11.778Z,99582.50
2022-10-02T03:48:40.624Z,99591.03
2022-10-02T03:51:09.264Z,99582.53
2022-10-02T03:53:38.201Z,99583.41
2022-10-02T03:56:10.990Z,99584.28
2022-10-02T03:58:46.032Z,99580.94
2022-10-02T04:01:22.593Z,99584.47
2022-10-02T04:03:55.614Z,99586.25
2022-10-02T04:06:29.875Z,99600.00
2022-10-02T04:09:04.665Z,99595.84
2022-10-02T04:11:37.292Z,99596.78
2022-10-02T04:14:13.983Z,99606.22
2022-10-02T04:16:50.740Z,99613.97
2022-10-02T04:19:24.543Z,99622.53
2022-10-02T04:21:57.801Z,99613.22
2022-10-02T04:24:33.030Z,99610.72
2022-10-02T04:27:08.399Z,99618.41
2022-10-02T04:29:41.425Z,99635.47
2022-10-02T04:32:16.641Z,99637.19
2022-10-02T04:34:45.464Z,99632.94
2022-10-02T04:37:38.181Z,99638.03
2022-10-02T04:40:31.974Z,99634.59
2022-10-02T04:43:22.372Z,99644.00
2022-10-02T04:46:09.063Z,99645.72
2022-10-02T04:48:59.972Z,99650.00
2022-10-02T04:51:44.594Z,99651.69
2022-10-02T04:54:33.114Z,99650.00
2022-10-02T04:57:24.465Z,99658.50
2022-10-02T05:00:13.036Z,99661.91
2022-10-02T05:03:05.342Z,99661.09
2022-10-02T05:05:56.603Z,99656.84
2022-10-02T05:08:43.642Z,99646.66
2022-10-02T05:11:35.656Z,99649.19
2022-10-02T05:14:36.901Z,99653.44
2022-10-02T05:17:23.945Z,99657.69
2022-10-02T05:20:06.306Z,99667.06
2022-10-02T05:22:58.802Z,99665.34
2022-10-02T05:25:54.771Z,99664.47
2022-10-02T05:28:48.201Z,99656.81
2022-10-02T05:31:30.760Z,99655.94
2022-10-02T05:34:11.392Z,99658.47
2022-10-02T05:36:51.182Z,99648.22
2022-10-02T05:39:27.345Z,99655.03
2022-10-02T05:42:08.544Z,99654.22
2022-10-02T05:44:41.304Z,99656.72
2022-10-02T05:47:16.546Z,99651.66
2022-10-02T05:49:52.295Z,99663.53
2022-10-02T05:52:27.625Z,99650.78
2022-10-02T05:55:01.633Z,99664.34
2022-10-02T05:57:38.183Z,99665.16
2022-10-02T06:00:18.396Z,99664.31
2022-10-02T06:02:58.314Z,99665.94
2022-10-02T06:05:34.915Z,99665.88
2022-10-02T06:08:08.504Z,99653.03
2022-10-02T06:10:42.904Z,99653.78
2022-10-02T06:13:20.394Z,99659.69
2022-10-02T06:15:54.204Z,99657.06
2022-10-02T06:18:26.985Z,99660.34
2022-10-02T06:21:00.432Z,99650.84
2022-10-02T06:23:37.055Z,99662.63
2022-10-02T06:26:11.902Z,99656.53
2022-10-02T06:28:45.333Z,99659.81
2022-10-02T06:31:22.449Z,99662.22
2022-10-02T06:33:53.576Z,99655.28
2022-10-02T06:36:45.899Z,99663.75
2022-10-02T06:39:30.641Z,99655.06
2022-10-02T06:42:14.682Z,99654.91
2022-10-02T06:44:54.508Z,99661.59
2022-10-02T06:47:36.687Z,99647.78
2022-10-02T06:50:28.329Z,99659.56
2022-10-02T06:53:05.933Z,99651.72
2022-10-02T06:55:45.938Z,99652.41
2022-10-02T06:58:31.488Z,99652.19
2022-10-02T07:01:10.188Z,99645.22
2022-10-02T07:04:01.758Z,99662.09
2022-10-02T07:06:41.715Z,99666.13
2022-10-02T07:09:35.190Z,99669.38
2022-10-02T07:12:18.565Z,99682.03
2022-10-02T07:15:04.347Z,99677.56
2022-10-02T07:17:50.068Z,99674.81
2022-10-02T07:20:43.209Z,99690.81
2022-10-02T07:23:32.764Z,99690.56
2022-10-02T07:26:07.638Z,99686.03
2022-10-02T07:28:43.307Z,99680.69
2022-10-02T07:31:23.382Z,99695.78
2022-10-02T07:34:07.774Z,99703.22
2022-10-02T07:36:49.008Z,99703.19
2022-10-02T07:39:33.586Z,99693.97
2022-10-02T07:42:24.228Z,99693.19
2022-10-02T07:45:25.768Z,99712.09
2022-10-02T07:48:19.468Z,99692.63
2022-10-02T07:51:02.922Z,99699.22
2022-10-02T07:53:40.523Z,99706.47
2022-10-02T07:56:20.220Z,99698.50
2022-10-02T07:58:55.370Z,99704.88
2022-10-02T08:01:27.576Z,99709.13
2022-10-02T08:04:00.360Z,99709.38
2022-10-02T08:06:30.980Z,99708.47
2022-10-02T08:09:04.479Z,99711.63
2022-10-02T08:11:38.447Z,99719.09
2022-10-02T08:14:12.807Z,99720.09
2022-10-02T08:16:46.739Z,99718.22
2022-10-02T08:19:18.678Z,99723.22
2022-10-02T08:21:55.858Z,99726.75
2022-10-02T08:24:28.538Z,99734.59
2022-10-02T08:27:02.677Z,99732.88
2022-10-02T08:29:41.700Z,99736.34
2022-10-02T08:32:12.956Z,99728.88
2022-10-02T08:34:44.347Z,99742.84
2022-10-02T08:37:32.817Z,99731.25
2022-10-02T08:40:30.043Z,99734.91
2022-10-02T08:43:21.648Z,99734.00
2022-10-02T08:46:08.561Z,99726.09
2022-10-02T08:48:56.595Z,99727.31
2022-10-02T08:51:56.722Z,99727.78
2022-10-02T08:54:49.788Z,99727.63
2022-10-02T08:57:46.005Z,99730.97
2022-10-02T09:00:23.551Z,99712.78
2022-10-02T09:03:34.582Z,99731.06
2022-10-02T09:06:32.302Z,99722.13
2022-10-02T09:09:39.221Z,99726.16
2022-10-02T09:12:33.404Z,99715.84
2022-10-02T09:15:16.162Z,99719.75
2022-10-02T09:17:49.224Z,99705.47
2022-10-02T09:20:53.512Z,99705.03
2022-10-02T09:23:52.969Z,99701.56
2022-10-02T09:26:27.310Z,99706.75
2022-10-02T09:29:31.371Z,99701.28
2022-10-02T09:32:27.211Z,99706.25
2022-10-02T09:35:23.304Z,99711.63
2022-10-02T09:38:21.405Z,99699.31
2022-10-02T09:41:21.439Z,99703.22
2022-10-02T09:44:24.232Z,99703.13
2022-10-02T09:47:21.603Z,99703.66
2022-10-02T09:50:28.131Z,99695.66
2022-10-02T09:53:18.702Z,99695.53
2022-10-02T09:56:13.063Z,99697.72
2022-10-02T09:59:11.925Z,99700.72
2022-10-02T10:02:04.156Z,99699.53
2022-10-02T10:05:07.987Z,99700.91
2022-10-02T10:08:04.473Z,99703.75
2022-10-02T10:11:00.848Z,99708.19
2022-10-02T10:14:00.424Z,99689.41
2022-10-02T10:17:09.339Z,99694.44
2022-10-02T10:20:03.907Z,99694.28
2022-10-02T10:22:57.795Z,99702.00
2022-10-02T10:25:51.853Z,99712.94
2022-10-02T10:28:55.772Z,99715.75
2022-10-02T10:31:59.784Z,99705.97
2022-10-02T10:35:05.744Z,99702.25
2022-10-02T10:38:09.024Z,99689.41
2022-10-02T10:40:54.913Z,99691.22
2022-10-02T10:44:05.047Z,99695.41
2022-10-02T10:46:59.485Z,99685.41
2022-10-02T10:50:02.946Z,99686.69
2022-10-02T10:52:52.311Z,99680.75
2022-10-02T10:55:35.896Z,99671.75
2022-10-02T10:58:21.416Z,99676.53
2022-10-02T11:01:07.232Z,99675.81
2022-10-02T11:03:58.663Z,99672.09
2022-10-02T11:06:52.267Z,99675.78
2022-10-02T11:09:42.327Z,99687.69
2022-10-02T11:12:33.466Z,99673.25
2022-10-02T11:15:21.163Z,99678.88
2022-10-02T11:18:06.940Z,99676.53
2022-10-02T11:21:07.618Z,99684.25
2022-10-02T11:23:52.144Z,99683.72
2022-10-02T11:26:41.055Z,99680.03
2022-10-02T11:29:43.799Z,99681.69
2022-10-02T11:32:35.094Z,99674.47
2022-10-02T11:35:23.596Z,99666.19
2022-10-02T11:38:10.736Z,99664.50
2022-10-02T11:40:54.239Z,99660.06
2022-10-02T11:43:45.148Z,99657.06
2022-10-02T11:46:33.695Z,99652.50
2022-10-02T11:49:29.679Z,99642.41
2022-10-02T11:52:22.560Z,99645.00
2022-10-02T11:55:06.008Z,99641.28
2022-10-02T11:57:50.681Z,99631.88
2022-10-02T12:00:57.223Z,99639.72
2022-10-02T12:03:37.313Z,99645.41
2022-10-02T12:06:15.547Z,99645.59
2022-10-02T12:08:55.945Z,99653.72
2022-10-02T12:11:35.143Z,99651.28
2022-10-02T12:14:11.455Z,99645.13
2022-10-02T12:16:56.235Z,99635.34
2022-10-02T12:20:01.405Z,99635.72
2022-10-02T12:22:59.536Z,99636.00
2022-10-02T12:25:45.755Z,99622.25
2022-10-02T12:28:24.043Z,99625.72
2022-10-02T12:31:05.529Z,99623.88
2022-10-02T12:33:47.129Z,99607.47
2022-10-02T12:36:34.597Z,99609.16
2022-10-02T12:39:22.157Z,99608.31
2022-10-02T12:42:07.967Z,99608.41
2022-10-02T12:45:02.696Z,99622.00
2022-10-02T12:47:52.059Z,99611.31
2022-10-02T12:50:34.370Z,99606.66
2022-10-02T12:53:31.418Z,99596.94
2022-10-02T12:56:23.128Z,99595.94
2022-10-02T12:59:02.410Z,99599.28
2022-10-02T13:02:10.779Z,99592.31
2022-10-02T13:05:02.629Z,99585.44
2022-10-02T13:07:52.607Z,99582.94
2022-10-02T13:10:24.682Z,99585.72
2022-10-02T13:13:14.000Z,99583.25
2022-10-02T13:15:54.026Z,99579.88
2022-10-02T13:18:44.497Z,99587.00
2022-10-02T13:21:20.097Z,99589.81
2022-10-02T13:24:00.691Z,99591.69
2022-10-02T13:26:38.561Z,99589.38
2022-10-02T13:29:26.218Z,99583.38
2022-10-02T13:32:12.171Z,99574.69
2022-10-02T13:34:55.961Z,99573.97
2022-10-02T13:37:51.937Z,99576.56
2022-10-02T13:40:28.752Z,99568.91
2022-10-02T13:43:19.791Z,99565.56
2022-10-02T13:45:54.430Z,99560.63
2022-10-02T13:48:38.163Z,99564.28
2022-10-02T13:51:10.665Z,99563.50
2022-10-02T13:53:53.568Z,99558.41
2022-10-02T13:56:37.578Z,99558.56
2022-10-02T13:59:24.609Z,99553.63
2022-10-02T14:02:23.479Z,99548.66
2022-10-02T14:05:00.762Z,99554.03
2022-10-02T14:07:58.727Z,99541.34
2022-10-02T14:10:40.220Z,99544.88
2022-10-02T14:13:25.435Z,99543.28
2022-10-02T14:16:09.927Z,99538.25
2022-10-02T14:19:04.190Z,99537.53
2022-10-02T14:21:38.967Z,99545.22
2022-10-02T14:24:46.627Z,99537.47
2022-10-02T14:27:25.443Z,99533.13
2022-10-02T14:30:01.719Z,99521.94
2022-10-02T14:32:48.774Z,99526.16
2022-10-02T14:35:34.586Z,99527.88
2022-10-02T14:38:41.753Z,99515.91
2022-10-02T14:41:31.295Z,99510.75
2022-10-02T14:44:23.483Z,99510.63
2022-10-02T14:47:15.308Z,99508.97
2022-10-02T14:50:10.312Z,99501.31
2022-10-02T14:52:59.664Z,99510.84
2022-10-02T14:55:42.935Z,99506.56
2022-10-02T14:58:29.155Z,99501.38
2022-10-02T15:01:29.846Z,99492.00
2022-10-02T15:04:19.546Z,99493.78
2022-10-02T15:06:57.992Z,99491.28
2022-10-02T15:09:34.843Z,99497.31
2022-10-02T15:12:15.642Z,99490.50
2022-10-02T15:14:58.294Z,99495.72
2022-10-02T15:17:51.318Z,99511.25
2022-10-02T15:20:41.499Z,99507.03
2022-10-02T15:23:13.995Z,99494.56
2022-10-02T15:26:04.667Z,99514.25
2022-10-02T15:28:49.374Z,99526.56
2022-10-02T15:31:28.126Z,99524.63
2022-10-02T15:34:10.357Z,99518.25
2022-10-02T15:36:59.094Z,99514.38
2022-10-02T15:39:49.235Z,99518.09
2022-10-02T15:42:30.033Z,99509.84
2022-10-02T15:45:14.095Z,99502.34
2022-10-02T15:48:10.364Z,99497.31
2022-10-02T15:50:50.238Z,99494.03
2022-10-02T15:53:39.849Z,99489.13
2022-10-02T15:56:21.902Z,99490.72
2022-10-02T15:59:05.598Z,99492.56
2022-10-02T16:01:48.203Z,99490.03
2022-10-02T16:04:34.415Z,99489.25
2022-10-02T16:07:25.053Z,99495.25
2022-10-02T16:10:05.485Z,99493.56
2022-10-02T16:13:03.242Z,99475.69
2022-10-02T16:15:49.286Z,99486.06
2022-10-02T16:18:42.593Z,99484.31
2022-10-02T16:21:40.828Z,99474.16
2022-10-02T16:24:36.857Z,99481.97
2022-10-02T16:27:28.110Z,99479.44
2022-10-02T16:30:12.257Z,99476.91
2022-10-02T16:32:59.626Z,99484.69
2022-10-02T16:35:54.189Z,99489.84
2022-10-02T16:38:36.842Z,99489.78
2022-10-02T16:41:19.411Z,99497.53
2022-10-02T16:44:03.755Z,99488.97
2022-10-02T16:46:38.550Z,99480.50
2022-10-02T16:49:19.186Z,99474.56
2022-10-02T16:51:56.974Z,99468.63
2022-10-02T16:54:39.556Z,99471.34
2022-10-02T16:57:22.482Z,99467.97
2022-10-02T17:00:00.089Z,99474.81
2022-10-02T17:02:43.650Z,99480.91
2022-10-02T17:05:26.295Z,99490.44
2022-10-02T17:08:03.546Z,99485.34
2022-10-02T17:10:41.243Z,99480.22
2022-10-02T17:13:26.417Z,99490.59
2022-10-02T17:16:00.668Z,99488.84
2022-10-02T17:18:39.029Z,99488.81
2022-10-02T17:21:14.927Z,99494.84
2022-10-02T17:23:54.382Z,99493.19
2022-10-02T17:26:34.798Z,99495.81
2022-10-02T17:29:15.678Z,99492.38
2022-10-02T17:31:52.269Z,99497.66
2022-10-02T17:34:24.735Z,99494.22
2022-10-02T17:37:08.117Z,99498.50
2022-10-02T17:39:49.935Z,99490.81
2022-10-02T17:42:31.796Z,99494.28
2022-10-02T17:45:16.894Z,99491.72
2022-10-02T17:47:58.734Z,99481.44
2022-10-02T17:50:45.249Z,99487.50
2022-10-02T17:53:44.899Z,99489.25
2022-10-02T17:56:35.407Z,99488.44
2022-10-02T17:59:33.284Z,99497.84
2022-10-02T18:02:14.981Z,99504.72
2022-10-02T18:04:59.617Z,99509.88
2022-10-02T18:07:46.066Z,99526.94
2022-10-02T18:10:28.114Z,99526.09
2022-10-02T18:13:33.260Z,99527.00
2022-10-02T18:16:16.230Z,99527.84
2022-10-02T18:19:07.846Z,99538.22
2022-10-02T18:21:47.899Z,99539.16
2022-10-02T18:24:32.214Z,99540.88
2022-10-02T18:27:24.411Z,99536.59
2022-10-02T18:30:09.023Z,99534.97
2022-10-02T18:33:31.979Z,99525.59
2022-10-02T18:36:19.476Z,99522.22
2022-10-02T18:39:02.941Z,99521.41
2022-10-02T18:41:50.967Z,99506.16
2022-10-02T18:44:38.822Z,99518.06
2022-10-02T18:47:20.005Z,99520.59
2022-10-02T18:50:11.983Z,99518.88
2022-10-02T18:52:54.617Z,99526.56
2022-10-02T18:55:41.030Z,99522.25
2022-10-02T18:58:21.668Z,99524.91
2022-10-02T19:01:14.873Z,99529.22
2022-10-02T19:04:03.608Z,99518.97
2022-10-02T19:06:36.183Z,99529.16
2022-10-02T19:09:20.524Z,99527.50
2022-10-02T19:11:57.035Z,99526.66
2022-10-02T19:14:35.365Z,99536.03
2022-10-02T19:17:08.934Z,99529.16
2022-10-02T19:19:40.027Z,99526.63
2022-10-02T19:22:19.565Z,99530.94
2022-10-02T19:24:49.666Z,99541.19
2022-10-02T19:27:24.936Z,99542.88
2022-10-02T19:29:57.989Z,99537.66
2022-10-02T19:32:32.178Z,99541.97
2022-10-02T19:35:09.175Z,99544.53
2022-10-02T19:37:45.385Z,99529.16
2022-10-02T19:40:19.627Z,99525.75
2022-10-02T19:42:53.014Z,99523.25
2022-10-02T19:45:26.967Z,99525.88
2022-10-02T19:47:59.985Z,99525.97
2022-10-02T19:50:41.447Z,99528.50
2022-10-02T19:53:24.686Z,99527.63
2022-10-02T19:55:57.445Z,99516.53
2022-10-02T19:58:33.479Z,99514.03
2022-10-02T20:01:03.170Z,99508.03
2022-10-02T20:03:33.014Z,99506.34
2022-10-02T20:06:10.947Z,99510.63
2022-10-02T20:08:46.245Z,99514.06
2022-10-02T20:11:22.582Z,99514.94
2022-10-02T20:13:56.486Z,99512.44
2022-10-02T20:16:36.633Z,99507.34
2022-10-02T20:19:07.737Z,99514.22
2022-10-02T20:21:41.198Z,99505.72
2022-10-02T20:24:21.578Z,99516.81
2022-10-02T20:26:54.238Z,99524.53
2022-10-02T20:29:28.016Z,99524.53
2022-10-02T20:32:04.469Z,99533.94
2022-10-02T20:34:39.374Z,99526.25
2022-10-02T20:37:13.860Z,99522.88
2022-10-02T20:39:50.993Z,99516.06
2022-10-02T20:42:24.539Z,99531.38
2022-10-02T20:44:53.348Z,99533.16
2022-10-02T20:47:50.657Z,99533.09
2022-10-02T20:50:47.256Z,99531.41
2022-10-02T20:53:38.808Z,99532.28
2022-10-02T20:56:22.735Z,99530.59
2022-10-02T20:59:13.667Z,99531.44
2022-10-02T21:01:55.336Z,99529.84
2022-10-02T21:04:45.478Z,99536.63
2022-10-02T21:07:53.067Z,99529.84
2022-10-02T21:10:45.358Z,99538.47
2022-10-02T21:13:38.965Z,99545.31
2022-10-02T21:16:42.318Z,99550.44
2022-10-02T21:19:37.118Z,99560.81
2022-10-02T21:22:35.835Z,99562.50
2022-10-02T21:25:27.326Z,99554.81
2022-10-02T21:28:32.476Z,99542.06
2022-10-02T21:31:15.861Z,99549.81
2022-10-02T21:34:00.236Z,99542.19
2022-10-02T21:36:34.347Z,99535.38
2022-10-02T21:39:35.706Z,99547.38
2022-10-02T21:42:25.375Z,99542.31
2022-10-02T21:45:24.998Z,99544.09
2022-10-02T21:48:09.427Z,99542.41
2022-10-02T21:51:06.567Z,99547.63
2022-10-02T21:54:07.276Z,99547.66
2022-10-02T21:56:58.314Z,99539.19
2022-10-02T21:59:50.234Z,99546.03
2022-10-02T22:02:39.003Z,99544.31
2022-10-02T22:05:36.647Z,99552.91
2022-10-02T22:08:18.609Z,99554.63
2022-10-02T22:10:59.116Z,99556.31
2022-10-02T22:13:34.103Z,99546.94
2022-10-02T22:16:18.408Z,99546.09
2022-10-02T22:18:54.106Z,99548.72
2022-10-02T22:21:43.365Z,99546.19
2022-10-02T22:24:40.195Z,99544.56
2022-10-02T22:27:31.653Z,99549.75
2022-10-02T22:30:00.465Z,99560.03
2022-10-02T22:32:57.846Z,99553.22
2022-10-02T22:35:34.798Z,99545.56
2022-10-02T22:38:15.774Z,99546.44
2022-10-02T22:40:51.614Z,99537.94
2022-10-02T22:43:30.475Z,99539.59
2022-10-02T22:46:04.067Z,99543.06
2022-10-02T22:48:41.468Z,99542.19
2022-10-02T22:51:20.347Z,99543.06
2022-10-02T22:53:54.804Z,99548.19
2022-10-02T22:56:32.965Z,99550.78
2022-10-02T22:59:11.756Z,99549.16
2022-10-02T23:01:47.706Z,99551.81
2022-10-02T23:04:29.214Z,99560.34
2022-10-02T23:07:05.807Z,99562.13
2022-10-02T23:09:44.517Z,99569.00
2022-10-02T23:12:18.425Z,99565.56
2022-10-02T23:14:58.895Z,99563.00
2022-10-02T23:17:33.077Z,99569.78
2022-10-02T23:20:11.547Z,99551.84
2022-10-02T23:22:49.306Z,99556.94
2022-10-02T23:25:24.737Z,99555.25
2022-10-02T23:28:01.787Z,99551.81
2022-10-02T23:30:36.147Z,99556.06
2022-10-02T23:33:15.235Z,99555.22
2022-10-02T23:35:54.218Z,99553.47
2022-10-02T23:38:31.175Z,99556.94
2022-10-02T23:41:18.411Z,99564.56
2022-10-02T23:43:57.973Z,99554.38
2022-10-02T23:46:32.536Z,99560.34
2022-10-02T23:49:01.414Z,99551.78
2022-10-02T23:51:42.365Z,99551.81
2022-10-02T23:54:39.114Z,99551.81
2022-10-02T23:57:39.176Z,99558.69
